Time;durP1;ratioP1;P1;durP2;ratioP2;P2;SDS_P1;SDS_P2;PMS_P1;PMS_P2;Temp;Humidity;BMP_temperature;BMP_pressure;BME280_temperature;BME280_humidity;BME280_pressure;Samples;Min_cycle;Max_cycle;Signal;HPM_P1;HPM_P2
2022/04/06 00:00:10;;;;;;;50.88;17.20;;;8.80;99.90;;;;;;5095944;28;20055;-73
2022/04/06 00:02:42;;;;;;;55.88;16.30;;;8.80;99.90;;;;;;5062844;28;20090;-73
2022/04/06 00:05:10;;;;;;;48.92;16.65;;;8.80;99.90;;;;;;5075194;28;20175;-74
2022/04/06 00:07:38;;;;;;;55.92;16.40;;;8.80;99.90;;;;;;5080077;28;20040;-73
2022/04/06 00:10:13;;;;;;;53.92;15.98;;;8.80;99.90;;;;;;5043176;28;20052;-76
2022/04/06 00:12:40;;;;;;;45.55;15.63;;;8.80;99.90;;;;;;5074730;28;20044;-72
2022/04/06 00:15:21;;;;;;;49.38;15.90;;;8.70;99.90;;;;;;5056680;28;20074;-78
2022/04/06 00:17:48;;;;;;;44.75;14.80;;;8.80;99.90;;;;;;5073014;28;20121;-74
2022/04/06 00:20:24;;;;;;;50.78;15.77;;;8.80;99.90;;;;;;5054200;28;20198;-72
2022/04/06 00:22:51;;;;;;;53.83;16.10;;;8.80;99.90;;;;;;5088938;28;20044;-74
2022/04/06 00:25:18;;;;;;;56.70;16.08;;;8.80;99.90;;;;;;5078352;28;20518;-74
2022/04/06 00:27:44;;;;;;;62.38;16.95;;;8.70;99.90;;;;;;5103509;28;20039;-73
2022/04/06 00:30:11;;;;;;;48.72;15.70;;;8.70;99.90;;;;;;5113738;27;20043;-73
2022/04/06 00:32:47;;;;;;;54.78;16.92;;;8.70;99.90;;;;;;5100070;27;20069;-73
2022/04/06 00:35:28;;;;;;;57.13;17.58;;;8.80;99.90;;;;;;5117120;27;20055;-76
2022/04/06 00:37:57;;;;;;;56.70;18.65;;;8.80;99.90;;;;;;5100670;27;20043;-74
2022/04/06 00:40:45;;;;;;;54.33;15.32;;;8.80;99.90;;;;;;5115567;27;20142;-73
2022/04/06 00:43:29;;;;;;;47.53;15.30;;;8.80;99.90;;;;;;5127509;27;20390;-74
2022/04/06 00:46:07;;;;;;;49.80;13.65;;;8.80;99.90;;;;;;5102633;27;20043;-75
2022/04/06 00:48:46;;;;;;;48.88;13.95;;;8.80;99.90;;;;;;5112611;27;20479;-73
2022/04/06 00:51:15;;;;;;;51.65;14.70;;;8.80;99.90;;;;;;5116925;27;20086;-73
2022/04/06 00:53:56;;;;;;;43.33;13.85;;;8.80;99.90;;;;;;5089171;27;20546;-77
2022/04/06 00:56:28;;;;;;;40.03;13.15;;;8.80;99.90;;;;;;5066539;27;20075;-73
2022/04/06 00:58:56;;;;;;;52.45;14.43;;;8.80;99.90;;;;;;5085040;27;20051;-77
2022/04/06 01:01:36;;;;;;;47.20;13.60;;;8.80;99.90;;;;;;5133945;27;20047;-74
2022/04/06 01:04:10;;;;;;;39.85;10.95;;;8.80;99.90;;;;;;5118016;27;20071;-75
2022/04/06 01:06:37;;;;;;;49.50;13.30;;;8.70;99.90;;;;;;5101633;27;20392;-74
2022/04/06 01:09:07;;;;;;;42.38;12.60;;;8.70;99.90;;;;;;5149968;27;20115;-73
2022/04/06 01:11:33;;;;;;;48.97;12.65;;;8.70;99.90;;;;;;5117365;27;20126;-76
2022/04/06 01:14:37;;;;;;;45.50;12.68;;;8.70;99.90;;;;;;5101557;27;20055;-75
2022/04/06 01:17:07;;;;;;;45.33;13.13;;;8.70;99.90;;;;;;5131680;27;20398;-72
2022/04/06 01:20:19;;;;;;;48.00;13.57;;;8.70;99.90;;;;;;5112683;28;20078;-74
2022/04/06 01:22:51;;;;;;;54.83;12.55;;;8.70;99.90;;;;;;5059963;28;20456;-74
2022/04/06 01:25:29;;;;;;;46.33;12.10;;;8.70;99.90;;;;;;5108197;28;20051;-73
2022/04/06 01:27:58;;;;;;;49.13;13.27;;;8.80;99.90;;;;;;5093794;28;20055;-75
2022/04/06 01:30:24;;;;;;;45.97;11.00;;;8.70;99.90;;;;;;5095885;28;20427;-75
2022/04/06 01:32:51;;;;;;;47.83;10.98;;;8.80;99.90;;;;;;5113727;28;20050;-76
2022/04/06 01:35:24;;;;;;;44.20;12.25;;;8.70;99.90;;;;;;5091835;28;20051;-75
2022/04/06 01:37:50;;;;;;;49.53;11.55;;;8.80;99.90;;;;;;5093269;27;20047;-74
2022/04/06 01:40:16;;;;;;;46.58;10.98;;;8.70;99.90;;;;;;5115876;27;20390;-75
2022/04/06 01:42:42;;;;;;;38.65;10.07;;;8.80;99.90;;;;;;5116290;27;20051;-74
2022/04/06 01:45:17;;;;;;;47.78;11.57;;;8.80;99.90;;;;;;5099818;27;20411;-74
2022/04/06 01:47:44;;;;;;;40.30;9.98;;;8.80;99.90;;;;;;5132852;27;20115;-74
2022/04/06 01:52:56;;;;;;;36.72;9.90;;;8.80;99.90;;;;;;5128409;27;20065;-75
2022/04/06 01:55:23;;;;;;;42.30;9.85;;;8.90;99.90;;;;;;5132224;27;20074;-76
2022/04/06 01:57:52;;;;;;;34.38;9.40;;;8.90;99.90;;;;;;5129903;27;20044;-75
2022/04/06 02:00:19;;;;;;;39.50;8.80;;;8.90;99.90;;;;;;5127281;27;20079;-74
2022/04/06 02:02:52;;;;;;;38.13;8.57;;;8.90;99.90;;;;;;5095006;28;20050;-73
2022/04/06 02:05:20;;;;;;;39.03;8.27;;;8.90;99.90;;;;;;5112766;28;20062;-74
2022/04/06 02:07:48;;;;;;;37.67;7.88;;;8.90;99.90;;;;;;5072045;28;20043;-75
2022/04/06 02:10:21;;;;;;;35.13;9.85;;;8.90;99.90;;;;;;5114508;27;20526;-74
2022/04/06 02:13:04;;;;;;;38.20;9.48;;;8.90;99.90;;;;;;5132813;27;20055;-75
2022/04/06 02:15:30;;;;;;;26.08;7.93;;;8.90;99.90;;;;;;5115937;27;20042;-74
2022/04/06 02:17:57;;;;;;;44.85;8.25;;;9.00;99.90;;;;;;5132997;27;20192;-74
2022/04/06 02:20:28;;;;;;;30.08;7.78;;;8.90;99.90;;;;;;5107091;28;20138;-78
2022/04/06 02:22:55;;;;;;;25.13;7.28;;;8.90;99.90;;;;;;5095134;28;20491;-74
2022/04/06 02:25:23;;;;;;;35.95;7.43;;;8.90;99.90;;;;;;5111457;28;20064;-78
2022/04/06 02:28:01;;;;;;;31.17;7.77;;;8.90;99.90;;;;;;5101776;28;20074;-73
2022/04/06 02:30:30;;;;;;;29.65;7.40;;;8.90;99.90;;;;;;5111343;28;20218;-74
2022/04/06 02:32:57;;;;;;;35.38;6.68;;;8.90;99.90;;;;;;5113355;28;20055;-74
2022/04/06 02:35:23;;;;;;;;;;;8.90;99.90;;;;;;5095909;28;20047;-73
2022/04/06 02:37:49;;;;;;;40.57;7.23;;;9.00;99.90;;;;;;5114136;27;19931;-74
2022/04/06 02:40:21;;;;;;;32.42;7.90;;;8.90;99.90;;;;;;5130919;27;20088;-74
2022/04/06 02:42:47;;;;;;;43.40;7.32;;;9.00;99.90;;;;;;5115277;27;20319;-72
2022/04/06 02:45:13;;;;;;;30.00;8.40;;;9.00;99.90;;;;;;5115180;27;20142;-75
2022/04/06 02:47:39;;;;;;;39.10;8.77;;;8.90;99.90;;;;;;5132378;27;20122;-74
2022/04/06 02:50:07;;;;;;;35.30;7.93;;;8.90;99.90;;;;;;5133220;27;20397;-74
2022/04/06 02:52:34;;;;;;;;;;;8.90;99.90;;;;;;5098212;27;20150;-74
2022/04/06 02:55:02;;;;;;;30.73;7.65;;;8.90;99.90;;;;;;5131648;27;19927;-74
2022/04/06 02:57:28;;;;;;;44.13;10.10;;;8.90;99.90;;;;;;5114052;27;20051;-77
2022/04/06 02:59:59;;;;;;;48.97;10.50;;;8.90;99.90;;;;;;5114820;27;20098;-75
2022/04/06 03:02:31;;;;;;;39.65;9.25;;;8.90;99.90;;;;;;5115648;27;20039;-77
2022/04/06 03:04:57;;;;;;;36.90;9.75;;;9.00;99.90;;;;;;5115234;27;20406;-76
2022/04/06 03:07:22;;;;;;;47.72;10.30;;;8.90;99.90;;;;;;5111141;28;20216;-74
2022/04/06 03:09:58;;;;;;;49.47;10.32;;;8.90;99.90;;;;;;5098814;27;20049;-73
2022/04/06 03:12:23;;;;;;;42.63;11.95;;;9.00;99.90;;;;;;5131698;27;20043;-73
2022/04/06 03:14:49;;;;;;;48.25;12.18;;;8.90;99.90;;;;;;5113833;27;20031;-74
2022/04/06 03:17:16;;;;;;;45.55;11.70;;;9.00;99.90;;;;;;5131555;27;20738;-74
2022/04/06 03:19:42;;;;;;;52.22;12.70;;;9.00;99.90;;;;;;5115823;27;20058;-75
2022/04/06 03:22:09;;;;;;;52.47;14.40;;;9.00;99.90;;;;;;5118274;27;20053;-75
2022/04/06 03:24:34;;;;;;;49.35;13.48;;;9.00;99.90;;;;;;5132978;27;20049;-74
2022/04/06 03:27:00;;;;;;;52.55;13.65;;;9.00;99.90;;;;;;5135098;27;20038;-74
2022/04/06 03:29:29;;;;;;;48.47;11.98;;;9.00;99.90;;;;;;5117320;27;20134;-75
2022/04/06 03:31:55;;;;;;;55.83;13.50;;;9.00;99.90;;;;;;5134427;27;20054;-76
2022/04/06 03:34:22;;;;;;;47.67;12.85;;;9.00;99.90;;;;;;5134695;27;20050;-75
2022/04/06 03:36:56;;;;;;;49.60;12.18;;;9.00;99.90;;;;;;5133935;27;20428;-73
2022/04/06 03:39:23;;;;;;;55.03;13.70;;;9.10;99.90;;;;;;5150549;27;20055;-73
2022/04/06 03:41:50;;;;;;;49.78;11.93;;;9.00;99.90;;;;;;5133697;27;20051;-73
2022/04/06 03:44:15;;;;;;;49.55;13.15;;;9.10;99.90;;;;;;5117017;27;20149;-74
2022/04/06 03:46:41;;;;;;;54.83;15.10;;;9.10;99.90;;;;;;5099930;27;20038;-74
2022/04/06 03:49:14;;;;;;;43.08;12.27;;;9.10;99.90;;;;;;5129741;27;20054;-73
2022/04/06 03:51:42;;;;;;;50.90;12.00;;;9.00;99.90;;;;;;5133885;27;20047;-73
2022/04/06 03:54:08;;;;;;;55.00;12.68;;;9.10;99.90;;;;;;5132676;27;20071;-74
2022/04/06 03:56:38;;;;;;;44.85;10.77;;;9.00;99.90;;;;;;5131878;27;20123;-75
2022/04/06 03:59:04;;;;;;;48.53;12.77;;;9.10;99.90;;;;;;5133801;27;20069;-74
2022/04/06 04:01:36;;;;;;;48.27;12.63;;;9.00;99.90;;;;;;5116668;27;20042;-74
2022/04/06 04:04:10;;;;;;;39.38;10.60;;;9.00;99.90;;;;;;5100665;27;20509;-76
2022/04/06 04:06:39;;;;;;;47.70;11.95;;;9.00;99.90;;;;;;5119407;27;20434;-76
2022/04/06 04:09:08;;;;;;;48.45;10.50;;;9.00;99.90;;;;;;5138299;27;20050;-74
2022/04/06 04:11:34;;;;;;;37.80;10.23;;;9.00;99.90;;;;;;5104546;27;20498;-75
2022/04/06 04:14:00;;;;;;;40.57;9.70;;;9.00;99.90;;;;;;5103904;27;20363;-75
2022/04/06 04:16:32;;;;;;;37.30;9.38;;;9.00;99.90;;;;;;5138863;27;20098;-75
2022/04/06 04:18:58;;;;;;;47.33;10.23;;;9.00;99.90;;;;;;5137823;27;20102;-73
2022/04/06 04:21:34;;;;;;;51.10;10.25;;;9.00;99.90;;;;;;5121358;27;20061;-75
2022/04/06 04:24:01;;;;;;;35.58;9.93;;;8.90;99.90;;;;;;5138113;27;20050;-76
2022/04/06 04:26:37;;;;;;;39.05;9.63;;;9.00;99.90;;;;;;5121608;27;20115;-76
2022/04/06 04:29:04;;;;;;;38.75;9.10;;;9.00;99.90;;;;;;5117939;27;20042;-72
2022/04/06 04:31:31;;;;;;;35.05;10.07;;;8.90;99.90;;;;;;5101218;27;20114;-74
2022/04/06 04:33:57;;;;;;;39.30;9.02;;;8.90;99.90;;;;;;5100629;27;20159;-73
2022/04/06 04:36:25;;;;;;;33.35;8.00;;;8.90;99.90;;;;;;5101173;27;20136;-74
2022/04/06 04:38:51;;;;;;;36.50;8.68;;;9.00;99.90;;;;;;5083741;27;20047;-75
2022/04/06 04:41:17;;;;;;;30.77;7.70;;;8.90;99.90;;;;;;5102671;27;20066;-73
2022/04/06 04:43:44;;;;;;;35.08;9.32;;;9.00;99.90;;;;;;5104196;27;20138;-78
2022/04/06 04:46:13;;;;;;;;;;;9.00;99.90;;;;;;5121155;27;20061;-73
2022/04/06 04:48:38;;;;;;;36.08;8.75;;;9.00;99.90;;;;;;5121309;27;19919;-73
2022/04/06 04:51:08;;;;;;;29.30;7.95;;;9.00;99.90;;;;;;5137591;27;20050;-73
2022/04/06 04:53:52;;;;;;;35.17;9.25;;;8.90;99.90;;;;;;5104387;27;20050;-74
2022/04/06 04:56:19;;;;;;;34.67;8.05;;;8.90;99.90;;;;;;5120132;27;20039;-73
2022/04/06 04:58:48;;;;;;;30.65;9.30;;;8.90;99.90;;;;;;5120273;27;20490;-76
2022/04/06 05:01:17;;;;;;;33.42;8.90;;;8.90;99.90;;;;;;5102087;27;20039;-75
2022/04/06 05:03:49;;;;;;;36.10;8.13;;;8.90;99.90;;;;;;5117593;27;20058;-74
2022/04/06 05:06:16;;;;;;;36.10;8.70;;;8.90;99.90;;;;;;5118466;27;20047;-76
2022/04/06 05:08:42;;;;;;;29.63;7.88;;;8.90;99.90;;;;;;5120762;27;20387;-75
2022/04/06 05:11:08;;;;;;;38.60;9.07;;;8.90;99.90;;;;;;5153806;27;20047;-74
2022/04/06 05:13:37;;;;;;;36.00;8.63;;;8.90;99.90;;;;;;5137670;27;20070;-76
2022/04/06 05:16:04;;;;;;;32.70;7.70;;;8.90;99.90;;;;;;5138284;27;20099;-73
2022/04/06 05:18:30;;;;;;;;;;;8.90;99.90;;;;;;5134769;27;20039;-76
2022/04/06 05:20:57;;;;;;;31.63;6.37;;;8.90;99.90;;;;;;5116304;27;19919;-75
2022/04/06 05:23:23;;;;;;;29.00;6.53;;;8.90;99.90;;;;;;5116076;27;20442;-74
2022/04/06 05:25:49;;;;;;;24.40;6.53;;;8.90;99.90;;;;;;5118587;27;20130;-75
2022/04/06 05:28:15;;;;;;;29.65;5.97;;;8.90;99.90;;;;;;5138341;27;20138;-76
2022/04/06 05:30:42;;;;;;;21.70;5.60;;;8.80;99.90;;;;;;5137741;27;20050;-75
2022/04/06 05:33:11;;;;;;;21.53;5.60;;;8.80;99.90;;;;;;5136145;27;20115;-75
2022/04/06 05:35:38;;;;;;;23.60;5.55;;;8.80;99.90;;;;;;5136708;27;20300;-72
2022/04/06 05:38:04;;;;;;;25.42;5.35;;;8.80;99.90;;;;;;5119304;27;20050;-74
2022/04/06 05:40:30;;;;;;;23.77;5.07;;;8.80;99.90;;;;;;5136036;27;20034;-74
2022/04/06 05:42:56;;;;;;;27.02;4.85;;;8.80;99.90;;;;;;5136704;27;20501;-74
2022/04/06 05:45:25;;;;;;;15.60;4.70;;;8.80;99.90;;;;;;5119853;27;20130;-74
2022/04/06 05:47:50;;;;;;;21.33;4.30;;;8.80;99.90;;;;;;5134319;27;20046;-75
2022/04/06 05:50:17;;;;;;;24.30;5.00;;;8.90;99.90;;;;;;5136514;27;20043;-74
2022/04/06 05:52:49;;;;;;;14.93;4.15;;;8.90;99.90;;;;;;5137547;27;20054;-79
2022/04/06 05:55:17;;;;;;;28.70;4.27;;;9.00;99.90;;;;;;5118472;27;20043;-75
2022/04/06 05:57:44;;;;;;;21.02;4.20;;;8.90;99.90;;;;;;5103236;27;20058;-75
2022/04/06 06:00:14;;;;;;;21.77;4.65;;;9.00;99.90;;;;;;5156607;27;20086;-74
2022/04/06 06:02:44;;;;;;;24.13;4.82;;;9.00;99.90;;;;;;5120696;27;20385;-75
2022/04/06 06:05:11;;;;;;;23.33;3.95;;;9.00;99.90;;;;;;5103265;27;20538;-73
2022/04/06 06:07:37;;;;;;;18.85;3.00;;;9.10;99.90;;;;;;5134958;27;20063;-75
2022/04/06 06:10:04;;;;;;;19.02;2.80;;;9.10;99.90;;;;;;5134997;27;20046;-73
2022/04/06 06:12:31;;;;;;;17.42;3.63;;;9.10;99.90;;;;;;5119998;27;20121;-75
2022/04/06 06:14:57;;;;;;;17.38;3.72;;;8.90;99.90;;;;;;5137421;27;20039;-75
2022/04/06 06:17:23;;;;;;;14.30;2.92;;;9.10;99.90;;;;;;5120862;27;20061;-75
2022/04/06 06:19:49;;;;;;;15.88;2.47;;;9.10;99.90;;;;;;5102822;27;20426;-75
2022/04/06 06:22:17;;;;;;;15.18;2.65;;;9.10;99.90;;;;;;5136860;27;20085;-74
2022/04/06 06:24:45;;;;;;;17.50;2.40;;;9.10;99.90;;;;;;5118568;27;20125;-75
2022/04/06 06:27:19;;;;;;;15.13;2.35;;;9.10;99.90;;;;;;5132805;27;20210;-73
2022/04/06 06:29:48;;;;;;;16.25;2.80;;;9.20;99.90;;;;;;5099309;27;20065;-75
2022/04/06 06:32:14;;;;;;;19.80;3.15;;;9.20;99.90;;;;;;5105578;27;20058;-73
2022/04/06 06:34:40;;;;;;;17.80;2.70;;;9.20;99.90;;;;;;5116327;27;20043;-73
2022/04/06 06:37:07;;;;;;;19.33;3.33;;;9.20;99.90;;;;;;5098398;27;20075;-76
2022/04/06 06:39:33;;;;;;;18.70;2.33;;;9.10;99.90;;;;;;5115262;27;20058;-75
2022/04/06 06:41:59;;;;;;;19.23;2.88;;;9.10;99.90;;;;;;5115974;27;20289;-74
2022/04/06 06:44:25;;;;;;;15.23;2.65;;;9.10;99.90;;;;;;5098655;27;20116;-74
2022/04/06 06:46:52;;;;;;;16.95;3.00;;;9.10;99.90;;;;;;5134189;27;20043;-73
2022/04/06 06:49:18;;;;;;;16.27;2.70;;;9.10;99.90;;;;;;5132588;27;20051;-76
2022/04/06 06:51:47;;;;;;;14.80;2.25;;;9.10;99.90;;;;;;5115066;27;20395;-74
2022/04/06 06:54:13;;;;;;;15.85;2.50;;;9.10;99.90;;;;;;5114053;27;20047;-74
2022/04/06 06:56:39;;;;;;;20.25;3.47;;;9.10;99.90;;;;;;5099152;27;20500;-76
2022/04/06 06:59:05;;;;;;;15.63;3.25;;;9.10;99.90;;;;;;5136028;27;20067;-73
2022/04/06 07:01:31;;;;;;;15.38;2.92;;;9.20;99.90;;;;;;5119103;27;20043;-74
2022/04/06 07:03:57;;;;;;;17.65;2.53;;;9.20;99.90;;;;;;5117911;27;20043;-74
2022/04/06 07:06:23;;;;;;;11.77;2.60;;;9.20;99.90;;;;;;5119504;27;20042;-75
2022/04/06 07:08:49;;;;;;;15.90;2.90;;;9.20;99.90;;;;;;5135716;27;20050;-74
2022/04/06 07:11:15;;;;;;;18.85;3.35;;;9.20;99.90;;;;;;5117286;27;20046;-74
2022/04/06 07:13:41;;;;;;;25.40;4.38;;;9.20;99.90;;;;;;5101807;27;20371;-74
2022/04/06 07:16:07;;;;;;;18.02;3.33;;;9.20;99.90;;;;;;5153386;27;20557;-75
2022/04/06 07:18:35;;;;;;;;;;;9.30;99.90;;;;;;5119588;27;20475;-76
2022/04/06 07:21:02;;;;;;;15.23;3.42;;;9.30;99.90;;;;;;5100879;27;19985;-75
2022/04/06 07:23:28;;;;;;;15.32;3.65;;;9.30;99.90;;;;;;5118421;27;20047;-75
2022/04/06 07:25:56;;;;;;;13.77;3.63;;;9.30;99.90;;;;;;5117916;27;20043;-76
2022/04/06 07:28:23;;;;;;;13.52;3.28;;;9.20;99.90;;;;;;5103235;27;20050;-73
2022/04/06 07:30:51;;;;;;;12.27;3.77;;;9.30;99.90;;;;;;5127570;27;20050;-75
2022/04/06 07:33:23;;;;;;;14.02;4.47;;;9.30;99.90;;;;;;5135269;27;20292;-75
2022/04/06 07:35:49;;;;;;;21.63;4.32;;;9.30;99.90;;;;;;5135753;27;20046;-75
2022/04/06 07:38:18;;;;;;;28.55;5.78;;;9.40;99.90;;;;;;5119073;27;20046;-74
2022/04/06 07:40:44;;;;;;;27.45;5.63;;;9.30;99.90;;;;;;5133758;27;20058;-74
2022/04/06 07:43:11;;;;;;;20.08;5.00;;;9.30;99.90;;;;;;5136120;27;20053;-74
2022/04/06 07:45:37;;;;;;;;;;;9.30;99.90;;;;;;5102007;27;20130;-74
2022/04/06 07:48:04;;;;;;;23.23;5.70;;;9.30;99.90;;;;;;5119438;27;19973;-75
2022/04/06 07:50:33;;;;;;;;;;;9.30;99.90;;;;;;5102211;27;20160;-75
2022/04/06 07:52:59;;;;;;;20.48;5.45;;;9.30;99.90;;;;;;5118918;27;20410;-76
2022/04/06 07:55:29;;;;;;;18.77;6.05;;;9.40;99.90;;;;;;5119392;27;20046;-75
2022/04/06 07:57:55;;;;;;;29.38;6.78;;;9.40;99.90;;;;;;5120015;27;20096;-74
2022/04/06 08:00:21;;;;;;;21.35;6.78;;;9.40;99.90;;;;;;5119094;27;20084;-74
2022/04/06 08:02:53;;;;;;;28.20;8.18;;;9.50;99.90;;;;;;5120603;27;20108;-76
2022/04/06 08:05:19;;;;;;;27.50;6.97;;;9.40;99.90;;;;;;5135478;27;20515;-75
2022/04/06 08:07:53;;;;;;;42.47;7.72;;;9.50;99.90;;;;;;5118782;27;20086;-77
2022/04/06 08:10:20;;;;;;;30.67;7.97;;;9.60;99.90;;;;;;5134679;27;20239;-75
2022/04/06 08:12:47;;;;;;;19.73;8.07;;;9.60;99.90;;;;;;5118687;27;20053;-76
2022/04/06 08:15:15;;;;;;;34.15;8.55;;;9.60;99.90;;;;;;5135290;27;20050;-74
2022/04/06 08:17:46;;;;;;;27.10;8.45;;;9.70;99.90;;;;;;5121683;27;20046;-75
2022/04/06 08:20:14;;;;;;;22.75;6.85;;;9.70;99.90;;;;;;5119006;27;20054;-76
2022/04/06 08:22:42;;;;;;;24.00;7.25;;;9.70;99.90;;;;;;5119335;27;20054;-73
2022/04/06 08:25:08;;;;;;;28.02;7.72;;;9.70;99.90;;;;;;5135489;27;20145;-75
2022/04/06 08:27:39;;;;;;;21.10;7.28;;;9.70;99.90;;;;;;5119631;27;20057;-75
2022/04/06 08:30:07;;;;;;;25.38;8.00;;;9.70;99.90;;;;;;5119395;27;20084;-75
2022/04/06 08:32:37;;;;;;;20.80;7.68;;;9.80;99.90;;;;;;5119468;27;20046;-76
2022/04/06 08:35:09;;;;;;;26.63;7.07;;;9.80;99.90;;;;;;5119663;27;20096;-75
2022/04/06 08:37:43;;;;;;;19.48;6.38;;;10.00;99.90;;;;;;5119744;27;20110;-75
2022/04/06 08:40:15;;;;;;;18.23;7.53;;;10.10;99.90;;;;;;5154615;27;20049;-75
2022/04/06 08:42:44;;;;;;;20.27;6.28;;;10.10;99.90;;;;;;5121515;27;20055;-73
2022/04/06 08:45:10;;;;;;;30.38;8.50;;;10.20;99.90;;;;;;5138719;27;20047;-74
2022/04/06 08:47:38;;;;;;;27.08;6.65;;;10.10;99.90;;;;;;5121889;27;20039;-74
2022/04/06 08:50:06;;;;;;;26.50;6.97;;;10.10;99.90;;;;;;5121041;27;20042;-75
2022/04/06 08:52:35;;;;;;;24.35;6.90;;;10.00;99.90;;;;;;5139516;27;20064;-74
2022/04/06 08:55:04;;;;;;;31.73;6.55;;;10.00;99.90;;;;;;5140521;27;20095;-74
2022/04/06 08:57:33;;;;;;;26.58;7.28;;;10.00;99.90;;;;;;5161326;27;20097;-75
2022/04/06 08:59:59;;;;;;;21.50;5.65;;;9.90;99.90;;;;;;5149447;27;20043;-75
2022/04/06 09:02:25;;;;;;;12.05;5.32;;;10.00;99.90;;;;;;5104052;27;20047;-74
2022/04/06 09:04:55;;;;;;;19.98;5.90;;;10.00;99.90;;;;;;5086932;27;20050;-76
2022/04/06 09:07:23;;;;;;;19.25;6.57;;;10.00;99.90;;;;;;5121920;27;20241;-75
2022/04/06 09:09:54;;;;;;;19.83;6.15;;;9.90;99.90;;;;;;5104197;27;20051;-75
2022/04/06 09:12:23;;;;;;;19.88;6.28;;;9.80;99.90;;;;;;5111530;27;20043;-75
2022/04/06 09:15:12;;;;;;;15.35;5.40;;;9.70;99.90;;;;;;5140338;27;20091;-72
2022/04/06 09:17:46;;;;;;;23.83;5.35;;;9.80;99.90;;;;;;5123801;27;20118;-73
2022/04/06 09:20:14;;;;;;;18.10;4.63;;;9.80;99.90;;;;;;5121359;27;20109;-75
2022/04/06 09:22:40;;;;;;;;;;;9.80;99.90;;;;;;5108012;27;20375;-74
2022/04/06 09:25:09;;;;;;;18.00;4.83;;;9.80;99.90;;;;;;5123818;27;19926;-74
2022/04/06 09:27:39;;;;;;;18.33;4.57;;;9.80;99.90;;;;;;5108052;27;20289;-73
2022/04/06 09:30:06;;;;;;;16.50;4.40;;;9.90;99.90;;;;;;5125300;27;20043;-73
2022/04/06 09:32:33;;;;;;;15.35;4.97;;;10.00;99.90;;;;;;5125465;27;20391;-75
2022/04/06 09:34:59;;;;;;;18.10;4.40;;;10.10;99.90;;;;;;5124296;27;20063;-75
2022/04/06 09:37:32;;;;;;;15.25;4.43;;;10.20;99.90;;;;;;5109662;27;20376;-72
2022/04/06 09:40:08;;;;;;;14.23;4.25;;;10.30;99.90;;;;;;5124341;27;20078;-73
2022/04/06 09:42:36;;;;;;;18.13;4.70;;;10.30;99.90;;;;;;5106237;27;20051;-75
2022/04/06 09:47:51;;;;;;;14.10;4.95;;;10.30;99.90;;;;;;5124172;27;20176;-73
2022/04/06 09:50:22;;;;;;;12.75;4.25;;;10.20;99.90;;;;;;5141332;27;20039;-74
2022/04/06 09:52:53;;;;;;;11.93;4.50;;;10.30;99.90;;;;;;5106032;27;20050;-74
2022/04/06 09:55:22;;;;;;;20.85;5.88;;;10.20;99.90;;;;;;5104542;27;20052;-75
2022/04/06 09:57:58;;;;;;;16.70;5.63;;;10.30;99.90;;;;;;5142319;27;20127;-76
2022/04/06 10:00:26;;;;;;;19.17;5.80;;;10.40;99.90;;;;;;5120906;27;20459;-74
2022/04/06 10:03:01;;;;;;;21.75;6.22;;;10.50;99.90;;;;;;5162689;27;20340;-75
2022/04/06 10:05:29;;;;;;;25.08;7.65;;;10.50;99.90;;;;;;5126517;27;20049;-79
2022/04/06 10:07:59;;;;;;;18.45;7.10;;;10.40;99.90;;;;;;5127048;27;20055;-74
2022/04/06 10:10:25;;;;;;;19.83;5.97;;;10.20;99.90;;;;;;5143155;27;20078;-76
2022/04/06 10:12:53;;;;;;;21.23;6.27;;;10.30;99.90;;;;;;5110262;27;20054;-74
2022/04/06 10:15:21;;;;;;;23.42;6.53;;;10.30;99.90;;;;;;5143189;27;20038;-74
2022/04/06 10:17:48;;;;;;;25.35;7.40;;;10.30;99.90;;;;;;5142812;27;20106;-73
2022/04/06 10:20:51;;;;;;;18.35;6.53;;;10.40;99.90;;;;;;5146647;27;20058;-74
2022/04/06 10:23:38;;;;;;;24.45;6.90;;;10.30;99.90;;;;;;5122135;27;20074;-73
2022/04/06 10:26:27;;;;;;;25.05;7.05;;;10.40;99.90;;;;;;5139515;27;20039;-74
2022/04/06 10:28:54;;;;;;;21.08;6.65;;;10.50;99.90;;;;;;5126184;27;20042;-76
2022/04/06 10:31:28;;;;;;;16.15;6.38;;;10.60;99.90;;;;;;5127101;27;20075;-75
2022/04/06 10:34:20;;;;;;;21.55;6.45;;;10.70;99.90;;;;;;5141784;27;20190;-75
2022/04/06 10:37:18;;;;;;;16.58;6.13;;;10.70;99.90;;;;;;5124163;27;20042;-73
2022/04/06 10:39:50;;;;;;;18.60;5.97;;;10.50;99.90;;;;;;5095643;27;20059;-75
2022/04/06 10:42:36;;;;;;;16.63;6.15;;;10.50;99.90;;;;;;5101496;27;20133;-75
2022/04/06 10:45:05;;;;;;;19.08;7.30;;;10.50;99.90;;;;;;5118492;27;20078;-73
2022/04/06 10:47:32;;;;;;;18.20;6.75;;;10.40;99.90;;;;;;5117569;27;20078;-74
2022/04/06 10:50:15;;;;;;;22.75;7.95;;;10.30;99.90;;;;;;5133976;27;20059;-75
2022/04/06 10:52:44;;;;;;;21.00;7.25;;;10.50;99.90;;;;;;5134102;27;20440;-75
2022/04/06 10:55:23;;;;;;;24.95;7.45;;;10.40;99.90;;;;;;5117192;27;20043;-74
2022/04/06 10:57:56;;;;;;;19.38;6.90;;;10.30;99.90;;;;;;5101684;27;20055;-73
2022/04/06 11:00:24;;;;;;;23.08;7.97;;;10.30;99.90;;;;;;5100652;27;20065;-75
2022/04/06 11:02:50;;;;;;;14.80;5.10;;;10.30;99.90;;;;;;5117975;27;20125;-75
2022/04/06 11:05:44;;;;;;;21.55;7.80;;;10.30;99.90;;;;;;5135977;27;20079;-74
2022/04/06 11:11:44;;;;;;;22.35;8.07;;;10.20;99.90;;;;;;5134832;27;20071;-75
2022/04/06 11:14:11;;;;;;;15.43;6.90;;;10.20;99.90;;;;;;5135431;27;20051;-73
2022/04/06 11:16:46;;;;;;;26.83;9.30;;;10.30;99.90;;;;;;5115942;27;20043;-74
2022/04/06 11:19:16;;;;;;;28.77;10.57;;;10.30;99.90;;;;;;5117115;27;20137;-75
2022/04/06 11:21:56;;;;;;;26.27;8.82;;;10.30;99.90;;;;;;5083394;27;20078;-73
2022/04/06 11:24:28;;;;;;;24.40;7.90;;;10.20;99.90;;;;;;5116121;27;20063;-75
2022/04/06 11:26:55;;;;;;;24.38;8.23;;;10.20;99.90;;;;;;5101079;27;20090;-75
2022/04/06 11:29:28;;;;;;;21.30;7.95;;;10.20;99.90;;;;;;5116503;27;20054;-75
2022/04/06 11:32:04;;;;;;;27.42;9.82;;;10.20;99.90;;;;;;5117020;27;20526;-74
2022/04/06 11:34:32;;;;;;;25.88;8.20;;;10.20;99.90;;;;;;5100562;27;20082;-76
2022/04/06 11:36:59;;;;;;;24.25;8.65;;;10.30;99.90;;;;;;5118229;27;20046;-73
2022/04/06 11:39:26;;;;;;;20.88;7.43;;;10.30;99.90;;;;;;5099884;27;20146;-74
2022/04/06 11:41:53;;;;;;;;;;;10.50;99.90;;;;;;5119052;27;20050;-74
2022/04/06 11:44:21;;;;;;;21.92;8.65;;;10.60;99.90;;;;;;5100427;27;19930;-74
2022/04/06 11:46:48;;;;;;;21.73;8.50;;;10.60;99.90;;;;;;5101757;27;20050;-75
2022/04/06 11:49:21;;;;;;;29.67;9.45;;;10.70;99.90;;;;;;5118013;27;20359;-74
2022/04/06 11:51:54;;;;;;;27.60;8.23;;;10.70;99.90;;;;;;5102634;27;20043;-74
2022/04/06 11:54:23;;;;;;;27.52;10.15;;;10.70;99.90;;;;;;5134104;27;20074;-74
2022/04/06 11:56:56;;;;;;;27.42;8.55;;;10.30;99.90;;;;;;5103377;27;20509;-74
2022/04/06 11:59:25;;;;;;;24.90;9.23;;;10.40;99.90;;;;;;5119237;27;20071;-77
2022/04/06 12:01:58;;;;;;;25.75;7.70;;;10.60;99.90;;;;;;5120561;27;20043;-73
2022/04/06 12:04:26;;;;;;;21.47;8.53;;;11.00;99.90;;;;;;5085466;28;20146;-79
2022/04/06 12:06:54;;;;;;;20.13;7.55;;;11.20;99.90;;;;;;5101569;28;20047;-75
2022/04/06 12:09:25;;;;;;;21.33;7.70;;;11.30;99.90;;;;;;5148148;27;20102;-73
2022/04/06 12:11:57;;;;;;;24.90;7.32;;;11.30;99.90;;;;;;5124935;27;20580;-74
2022/04/06 12:14:27;;;;;;;22.38;8.27;;;11.40;99.90;;;;;;5126051;27;20054;-75
2022/04/06 12:17:06;;;;;;;24.48;9.55;;;11.60;99.90;;;;;;5128009;27;20046;-74
2022/04/06 12:19:33;;;;;;;22.33;8.13;;;11.30;99.90;;;;;;5143532;27;20046;-74
2022/04/06 12:22:10;;;;;;;24.48;8.85;;;11.50;99.90;;;;;;5153801;27;20055;-75
2022/04/06 12:24:43;;;;;;;20.55;8.43;;;11.40;99.90;;;;;;5138930;27;20130;-75
2022/04/06 12:27:10;;;;;;;24.85;8.35;;;11.20;99.90;;;;;;5140010;27;20067;-74
2022/04/06 12:29:38;;;;;;;26.13;10.20;;;11.30;99.90;;;;;;5143371;27;20042;-75
2022/04/06 12:32:05;;;;;;;29.92;9.18;;;11.10;99.90;;;;;;5128749;27;20043;-77
2022/04/06 12:34:37;;;;;;;22.95;7.82;;;11.20;99.90;;;;;;5144886;27;20047;-73
2022/04/06 12:39:50;;;;;;;;;;;11.30;99.90;;;;;;5138784;27;20115;-74
2022/04/06 12:42:22;;;;;;;23.42;6.63;;;11.20;99.90;;;;;;5122187;27;19920;-74
2022/04/06 12:44:57;;;;;;;23.65;8.75;;;11.20;99.90;;;;;;5137929;27;20043;-76
2022/04/06 12:47:31;;;;;;;25.23;8.25;;;11.00;99.90;;;;;;5120580;27;20051;-76
2022/04/06 12:50:13;;;;;;;25.30;9.45;;;11.10;99.90;;;;;;5138435;27;20078;-76
2022/04/06 12:52:40;;;;;;;20.95;8.20;;;11.20;99.90;;;;;;5136708;27;20051;-75
2022/04/06 12:55:09;;;;;;;22.70;8.77;;;11.10;99.90;;;;;;5136862;27;20089;-76
2022/04/06 12:57:43;;;;;;;26.08;8.15;;;11.10;99.90;;;;;;5119131;27;20115;-74
2022/04/06 13:00:22;;;;;;;20.13;8.40;;;11.10;99.90;;;;;;5137264;27;20558;-74
2022/04/06 13:02:54;;;;;;;23.48;8.38;;;10.90;99.90;;;;;;5121669;27;20107;-74
2022/04/06 13:05:23;;;;;;;23.17;7.93;;;10.90;99.90;;;;;;5119812;27;20046;-75
2022/04/06 13:07:53;;;;;;;22.42;8.82;;;10.80;99.90;;;;;;5120368;27;20043;-75